Kinghurst, Minnesota
Current Conditions -  °F | °C
As of 2:33 AM on Friday 28 Nov 2014 (Local Time) from KFOZ Reporting Station
Light Snow Light Snow  
Wind Chill:   Ceiling: 2200
Heat Index:   Visibility: 4mi
Dew Point:   Wind: 0mph
Humidity: 73%   Direction: NA
Pressure: 30.1"   Gusts: NA
Location:  47.8312°N, 94.1459°W
Report Text: KFOZ 280833Z AUTO 00000KT 4SM -SN SCT015 BKN022 OVC040 M13/M17 A3010 RMK AO2
Loading
Personal Weather Stations






























Interactive Weather Map New forecast layout! Learn more

10-Day Weather Forecast

Advertisements
Track Severe Weather on mobile